KGXY/GXY METAR and TAF weather

Enter ICAO airport designator
Station Type Date Time Source
KGXY METAR 2018/12/10 12:56 UTC NOAA

KGXY 101256Z AUTO 00000KT 10SM CLR M16/M18 A3024 RMK AO2 SLP309 T11561183 FZRANO


Station Type Date Time Source
KGXY Decoded METAR 2018/12/10 12:56 UTC NOAA

Greeley, Greeley-Weld County Airport, CO, United States (KGXY) 40-26N 104-38W
Dec 10, 2018 - 07:56 AM EST / 2018.12.10 1256 UTC
Wind: Calm:0
Visibility: 10 mile(s):0
Sky conditions: clear
Temperature: 3.9 F (-15.6 C)
Dew Point: -0.9 F (-18.3 C)
Relative Humidity: 79%
Pressure (altimeter): 30.24 in. Hg (1024 hPa)
ob: KGXY 101256Z AUTO 00000KT 10SM CLR M16/M18 A3024 RMK AO2 SLP309 T11561183 FZRANO
cycle: 13

Station Type Date Time Source
KGXY TAF UTC NOAA

Error!


Example: see airport list